sensor_id;sensor_type;location;lat;lon;timestamp;P1;durP1;ratioP1;P2;durP2;ratioP2
54665;SDS011;40566;50.006;36.180;2022-12-26T00:00:54;25.50;;;8.73;;
54665;SDS011;40566;50.006;36.180;2022-12-26T00:05:56;27.85;;;8.63;;
54665;SDS011;40566;50.006;36.180;2022-12-26T00:10:57;28.92;;;8.65;;
54665;SDS011;40566;50.006;36.180;2022-12-26T00:15:58;26.30;;;8.82;;
54665;SDS011;40566;50.006;36.180;2022-12-26T00:20:58;22.52;;;8.15;;
54665;SDS011;40566;50.006;36.180;2022-12-26T00:26:02;24.88;;;7.93;;
54665;SDS011;40566;50.006;36.180;2022-12-26T00:31:07;27.58;;;8.48;;
54665;SDS011;40566;50.006;36.180;2022-12-26T00:36:13;26.73;;;8.80;;
54665;SDS011;40566;50.006;36.180;2022-12-26T00:41:19;26.30;;;8.57;;
54665;SDS011;40566;50.006;36.180;2022-12-26T00:46:20;24.55;;;8.55;;
54665;SDS011;40566;50.006;36.180;2022-12-26T00:51:21;24.75;;;8.15;;
54665;SDS011;40566;50.006;36.180;2022-12-26T00:56:22;28.05;;;8.70;;
54665;SDS011;40566;50.006;36.180;2022-12-26T01:01:22;25.65;;;8.18;;
54665;SDS011;40566;50.006;36.180;2022-12-26T01:06:23;28.02;;;9.13;;
54665;SDS011;40566;50.006;36.180;2022-12-26T01:11:24;29.35;;;8.55;;
54665;SDS011;40566;50.006;36.180;2022-12-26T01:16:41;29.70;;;9.38;;
54665;SDS011;40566;50.006;36.180;2022-12-26T01:21:42;31.30;;;9.35;;
54665;SDS011;40566;50.006;36.180;2022-12-26T01:26:43;23.77;;;7.95;;
54665;SDS011;40566;50.006;36.180;2022-12-26T01:31:43;22.90;;;7.85;;
54665;SDS011;40566;50.006;36.180;2022-12-26T01:36:44;21.65;;;7.43;;
54665;SDS011;40566;50.006;36.180;2022-12-26T01:41:44;25.45;;;8.43;;
54665;SDS011;40566;50.006;36.180;2022-12-26T01:46:46;28.35;;;8.77;;
54665;SDS011;40566;50.006;36.180;2022-12-26T01:51:50;27.75;;;7.75;;
54665;SDS011;40566;50.006;36.180;2022-12-26T01:56:54;27.75;;;9.23;;
54665;SDS011;40566;50.006;36.180;2022-12-26T02:01:55;27.30;;;8.63;;
54665;SDS011;40566;50.006;36.180;2022-12-26T02:06:58;26.00;;;8.27;;
54665;SDS011;40566;50.006;36.180;2022-12-26T02:12:09;21.77;;;7.00;;
54665;SDS011;40566;50.006;36.180;2022-12-26T02:17:14;22.52;;;7.68;;
54665;SDS011;40566;50.006;36.180;2022-12-26T02:55:06;21.65;;;6.97;;
54665;SDS011;40566;50.006;36.180;2022-12-26T03:00:32;22.75;;;8.60;;
54665;SDS011;40566;50.006;36.180;2022-12-26T03:11:41;23.23;;;7.20;;
54665;SDS011;40566;50.006;36.180;2022-12-26T03:17:05;19.42;;;6.20;;
54665;SDS011;40566;50.006;36.180;2022-12-26T03:22:21;20.00;;;6.28;;
54665;SDS011;40566;50.006;36.180;2022-12-26T03:27:30;22.00;;;6.68;;
54665;SDS011;40566;50.006;36.180;2022-12-26T03:32:40;23.38;;;8.68;;
54665;SDS011;40566;50.006;36.180;2022-12-26T03:37:51;24.27;;;8.40;;
54665;SDS011;40566;50.006;36.180;2022-12-26T03:49:03;20.42;;;8.00;;
54665;SDS011;40566;50.006;36.180;2022-12-26T03:54:31;18.98;;;6.75;;
54665;SDS011;40566;50.006;36.180;2022-12-26T04:00:03;21.58;;;7.45;;
54665;SDS011;40566;50.006;36.180;2022-12-26T04:05:28;26.75;;;7.55;;
54665;SDS011;40566;50.006;36.180;2022-12-26T04:10:50;25.55;;;7.25;;
54665;SDS011;40566;50.006;36.180;2022-12-26T04:16:14;49.30;;;14.25;;
54665;SDS011;40566;50.006;36.180;2022-12-26T04:21:42;35.70;;;12.75;;
54665;SDS011;40566;50.006;36.180;2022-12-26T04:27:05;33.03;;;13.05;;
54665;SDS011;40566;50.006;36.180;2022-12-26T04:37:52;27.08;;;9.05;;
54665;SDS011;40566;50.006;36.180;2022-12-26T04:43:14;28.10;;;8.10;;
54665;SDS011;40566;50.006;36.180;2022-12-26T04:48:40;33.15;;;11.07;;
54665;SDS011;40566;50.006;36.180;2022-12-26T04:54:01;37.20;;;11.27;;
54665;SDS011;40566;50.006;36.180;2022-12-26T04:59:03;28.73;;;9.77;;
54665;SDS011;40566;50.006;36.180;2022-12-26T05:04:03;33.53;;;10.00;;
54665;SDS011;40566;50.006;36.180;2022-12-26T05:09:22;28.77;;;9.77;;
54665;SDS011;40566;50.006;36.180;2022-12-26T05:14:35;31.08;;;8.98;;
54665;SDS011;40566;50.006;36.180;2022-12-26T05:19:36;30.58;;;9.60;;
54665;SDS011;40566;50.006;36.180;2022-12-26T05:24:55;29.30;;;9.40;;
54665;SDS011;40566;50.006;36.180;2022-12-26T05:30:14;27.42;;;8.82;;
54665;SDS011;40566;50.006;36.180;2022-12-26T05:35:15;30.90;;;10.57;;
54665;SDS011;40566;50.006;36.180;2022-12-26T05:40:16;29.02;;;8.38;;
54665;SDS011;40566;50.006;36.180;2022-12-26T05:45:16;29.08;;;9.93;;
54665;SDS011;40566;50.006;36.180;2022-12-26T05:50:17;28.20;;;8.93;;
54665;SDS011;40566;50.006;36.180;2022-12-26T05:55:18;24.52;;;8.65;;
54665;SDS011;40566;50.006;36.180;2022-12-26T06:00:18;22.25;;;7.22;;
54665;SDS011;40566;50.006;36.180;2022-12-26T06:05:19;21.92;;;8.20;;
54665;SDS011;40566;50.006;36.180;2022-12-26T06:10:20;27.67;;;8.57;;
54665;SDS011;40566;50.006;36.180;2022-12-26T06:15:21;26.83;;;8.63;;
54665;SDS011;40566;50.006;36.180;2022-12-26T06:20:22;21.45;;;8.10;;
54665;SDS011;40566;50.006;36.180;2022-12-26T06:25:22;24.25;;;8.30;;
54665;SDS011;40566;50.006;36.180;2022-12-26T06:30:23;26.67;;;7.65;;
54665;SDS011;40566;50.006;36.180;2022-12-26T06:35:24;22.17;;;7.65;;
54665;SDS011;40566;50.006;36.180;2022-12-26T06:40:24;27.02;;;7.43;;
54665;SDS011;40566;50.006;36.180;2022-12-26T06:45:25;23.88;;;7.63;;
54665;SDS011;40566;50.006;36.180;2022-12-26T06:50:26;25.70;;;8.80;;
54665;SDS011;40566;50.006;36.180;2022-12-26T06:55:27;20.50;;;7.68;;
54665;SDS011;40566;50.006;36.180;2022-12-26T07:00:27;22.38;;;7.35;;
54665;SDS011;40566;50.006;36.180;2022-12-26T07:05:29;24.58;;;8.50;;
54665;SDS011;40566;50.006;36.180;2022-12-26T07:10:33;23.27;;;8.00;;
54665;SDS011;40566;50.006;36.180;2022-12-26T07:15:34;30.15;;;9.70;;
54665;SDS011;40566;50.006;36.180;2022-12-26T07:20:36;27.05;;;8.50;;
54665;SDS011;40566;50.006;36.180;2022-12-26T07:25:37;28.83;;;9.98;;
54665;SDS011;40566;50.006;36.180;2022-12-26T07:30:37;28.75;;;8.77;;
54665;SDS011;40566;50.006;36.180;2022-12-26T07:35:38;25.63;;;9.13;;
54665;SDS011;40566;50.006;36.180;2022-12-26T07:40:38;28.20;;;9.77;;
54665;SDS011;40566;50.006;36.180;2022-12-26T07:45:39;29.77;;;9.60;;
54665;SDS011;40566;50.006;36.180;2022-12-26T07:50:40;29.25;;;9.35;;
54665;SDS011;40566;50.006;36.180;2022-12-26T07:55:41;31.77;;;10.32;;
54665;SDS011;40566;50.006;36.180;2022-12-26T08:00:41;34.50;;;10.82;;
54665;SDS011;40566;50.006;36.180;2022-12-26T08:05:45;33.47;;;9.68;;
54665;SDS011;40566;50.006;36.180;2022-12-26T08:10:47;22.08;;;7.50;;
54665;SDS011;40566;50.006;36.180;2022-12-26T08:15:47;32.35;;;8.68;;
54665;SDS011;40566;50.006;36.180;2022-12-26T08:20:48;27.52;;;8.98;;
54665;SDS011;40566;50.006;36.180;2022-12-26T08:25:49;23.88;;;8.38;;
54665;SDS011;40566;50.006;36.180;2022-12-26T08:30:50;26.10;;;10.02;;
54665;SDS011;40566;50.006;36.180;2022-12-26T08:35:50;33.53;;;10.98;;
54665;SDS011;40566;50.006;36.180;2022-12-26T08:40:52;34.33;;;10.40;;
54665;SDS011;40566;50.006;36.180;2022-12-26T08:45:56;34.63;;;13.02;;
54665;SDS011;40566;50.006;36.180;2022-12-26T08:50:58;28.52;;;10.95;;
54665;SDS011;40566;50.006;36.180;2022-12-26T08:56:05;42.65;;;15.20;;
54665;SDS011;40566;50.006;36.180;2022-12-26T09:06:18;28.35;;;9.38;;
54665;SDS011;40566;50.006;36.180;2022-12-26T09:11:22;35.47;;;11.05;;
54665;SDS011;40566;50.006;36.180;2022-12-26T09:16:31;29.03;;;10.70;;
54665;SDS011;40566;50.006;36.180;2022-12-26T09:21:41;30.02;;;10.35;;
54665;SDS011;40566;50.006;36.180;2022-12-26T09:26:42;29.55;;;9.63;;
54665;SDS011;40566;50.006;36.180;2022-12-26T09:31:43;28.50;;;10.15;;
54665;SDS011;40566;50.006;36.180;2022-12-26T09:36:43;26.20;;;9.50;;
54665;SDS011;40566;50.006;36.180;2022-12-26T09:52:47;30.10;;;10.75;;
54665;SDS011;40566;50.006;36.180;2022-12-26T09:57:46;29.63;;;10.73;;
54665;SDS011;40566;50.006;36.180;2022-12-26T10:02:53;34.50;;;11.35;;
54665;SDS011;40566;50.006;36.180;2022-12-26T10:08:01;32.15;;;11.40;;
54665;SDS011;40566;50.006;36.180;2022-12-26T10:13:15;27.13;;;10.98;;
54665;SDS011;40566;50.006;36.180;2022-12-26T10:23:44;33.28;;;12.55;;
54665;SDS011;40566;50.006;36.180;2022-12-26T10:28:50;32.85;;;13.13;;
54665;SDS011;40566;50.006;36.180;2022-12-26T10:44:34;38.30;;;13.73;;
54665;SDS011;40566;50.006;36.180;2022-12-26T10:49:34;37.00;;;14.32;;
54665;SDS011;40566;50.006;36.180;2022-12-26T10:54:35;34.97;;;14.63;;
54665;SDS011;40566;50.006;36.180;2022-12-26T10:59:40;34.33;;;12.73;;
54665;SDS011;40566;50.006;36.180;2022-12-26T11:10:03;31.65;;;12.00;;
54665;SDS011;40566;50.006;36.180;2022-12-26T11:20:48;33.45;;;13.98;;
54665;SDS011;40566;50.006;36.180;2022-12-26T11:25:54;39.90;;;15.65;;
54665;SDS011;40566;50.006;36.180;2022-12-26T11:30:57;45.42;;;19.02;;
54665;SDS011;40566;50.006;36.180;2022-12-26T11:36:05;43.15;;;19.00;;
54665;SDS011;40566;50.006;36.180;2022-12-26T11:41:10;44.75;;;19.85;;
54665;SDS011;40566;50.006;36.180;2022-12-26T11:46:44;41.63;;;17.20;;
54665;SDS011;40566;50.006;36.180;2022-12-26T11:57:34;41.95;;;15.35;;
54665;SDS011;40566;50.006;36.180;2022-12-26T12:02:34;41.38;;;17.20;;
54665;SDS011;40566;50.006;36.180;2022-12-26T12:18:27;41.13;;;17.58;;
54665;SDS011;40566;50.006;36.180;2022-12-26T12:23:46;40.83;;;18.08;;
54665;SDS011;40566;50.006;36.180;2022-12-26T12:35:02;53.50;;;20.08;;
54665;SDS011;40566;50.006;36.180;2022-12-26T12:40:25;27.17;;;11.73;;
54665;SDS011;40566;50.006;36.180;2022-12-26T12:46:09;30.77;;;10.93;;
54665;SDS011;40566;50.006;36.180;2022-12-26T12:52:01;26.67;;;9.63;;
54665;SDS011;40566;50.006;36.180;2022-12-26T13:02:04;25.58;;;9.88;;
54665;SDS011;40566;50.006;36.180;2022-12-26T13:07:19;25.63;;;10.13;;
54665;SDS011;40566;50.006;36.180;2022-12-26T13:12:28;31.75;;;10.10;;
54665;SDS011;40566;50.006;36.180;2022-12-26T13:17:36;20.23;;;9.25;;
54665;SDS011;40566;50.006;36.180;2022-12-26T13:22:45;28.40;;;9.27;;
54665;SDS011;40566;50.006;36.180;2022-12-26T13:28:27;32.72;;;11.40;;
54665;SDS011;40566;50.006;36.180;2022-12-26T13:33:31;35.10;;;11.65;;
54665;SDS011;40566;50.006;36.180;2022-12-26T13:43:58;34.13;;;11.73;;
54665;SDS011;40566;50.006;36.180;2022-12-26T13:49:25;43.72;;;14.73;;
54665;SDS011;40566;50.006;36.180;2022-12-26T14:05:01;30.70;;;13.40;;
54665;SDS011;40566;50.006;36.180;2022-12-26T14:10:24;35.47;;;13.32;;
54665;SDS011;40566;50.006;36.180;2022-12-26T14:21:20;41.92;;;14.65;;
54665;SDS011;40566;50.006;36.180;2022-12-26T14:42:19;27.23;;;11.73;;
54665;SDS011;40566;50.006;36.180;2022-12-26T14:52:42;55.50;;;19.50;;
54665;SDS011;40566;50.006;36.180;2022-12-26T14:57:46;63.97;;;25.08;;
54665;SDS011;40566;50.006;36.180;2022-12-26T15:03:12;70.38;;;26.58;;
54665;SDS011;40566;50.006;36.180;2022-12-26T15:30:36;31.13;;;12.15;;
54665;SDS011;40566;50.006;36.180;2022-12-26T15:40:50;34.38;;;13.18;;
54665;SDS011;40566;50.006;36.180;2022-12-26T15:46:09;36.20;;;13.75;;
54665;SDS011;40566;50.006;36.180;2022-12-26T15:52:06;46.35;;;16.98;;
54665;SDS011;40566;50.006;36.180;2022-12-26T15:56:51;38.67;;;13.80;;
54665;SDS011;40566;50.006;36.180;2022-12-26T16:02:02;38.45;;;13.32;;
54665;SDS011;40566;50.006;36.180;2022-12-26T16:12:37;28.80;;;10.85;;
54665;SDS011;40566;50.006;36.180;2022-12-26T16:17:40;24.33;;;9.70;;
54665;SDS011;40566;50.006;36.180;2022-12-26T16:22:41;27.17;;;10.65;;
54665;SDS011;40566;50.006;36.180;2022-12-26T16:27:42;30.75;;;11.48;;
54665;SDS011;40566;50.006;36.180;2022-12-26T16:32:45;26.73;;;9.77;;
54665;SDS011;40566;50.006;36.180;2022-12-26T16:37:46;26.35;;;11.23;;
54665;SDS011;40566;50.006;36.180;2022-12-26T16:43:04;29.30;;;10.35;;
54665;SDS011;40566;50.006;36.180;2022-12-26T16:48:26;23.40;;;9.43;;
54665;SDS011;40566;50.006;36.180;2022-12-26T16:58:35;27.70;;;12.23;;
54665;SDS011;40566;50.006;36.180;2022-12-26T17:09:06;15.38;;;6.47;;
54665;SDS011;40566;50.006;36.180;2022-12-26T17:14:15;16.52;;;7.32;;
54665;SDS011;40566;50.006;36.180;2022-12-26T17:19:20;12.55;;;5.05;;
54665;SDS011;40566;50.006;36.180;2022-12-26T17:24:25;12.90;;;5.07;;
54665;SDS011;40566;50.006;36.180;2022-12-26T17:29:46;9.27;;;3.83;;
54665;SDS011;40566;50.006;36.180;2022-12-26T17:34:47;12.13;;;4.10;;
54665;SDS011;40566;50.006;36.180;2022-12-26T17:39:59;12.85;;;4.28;;
54665;SDS011;40566;50.006;36.180;2022-12-26T17:45:20;15.20;;;5.88;;
54665;SDS011;40566;50.006;36.180;2022-12-26T17:50:30;16.38;;;5.57;;
54665;SDS011;40566;50.006;36.180;2022-12-26T17:55:32;13.05;;;5.13;;
54665;SDS011;40566;50.006;36.180;2022-12-26T18:00:33;15.60;;;5.30;;
54665;SDS011;40566;50.006;36.180;2022-12-26T18:05:35;13.93;;;5.85;;
54665;SDS011;40566;50.006;36.180;2022-12-26T18:10:36;20.85;;;7.15;;
54665;SDS011;40566;50.006;36.180;2022-12-26T18:15:36;19.52;;;6.10;;
54665;SDS011;40566;50.006;36.180;2022-12-26T18:20:37;21.00;;;7.68;;
54665;SDS011;40566;50.006;36.180;2022-12-26T18:25:38;34.30;;;12.30;;
54665;SDS011;40566;50.006;36.180;2022-12-26T18:30:39;30.60;;;9.30;;
54665;SDS011;40566;50.006;36.180;2022-12-26T18:35:40;26.70;;;9.45;;
54665;SDS011;40566;50.006;36.180;2022-12-26T18:40:43;27.58;;;10.90;;
54665;SDS011;40566;50.006;36.180;2022-12-26T18:45:46;34.35;;;14.32;;
54665;SDS011;40566;50.006;36.180;2022-12-26T18:50:47;28.45;;;10.15;;
54665;SDS011;40566;50.006;36.180;2022-12-26T18:55:47;40.03;;;12.35;;
54665;SDS011;40566;50.006;36.180;2022-12-26T19:00:48;55.70;;;17.08;;
54665;SDS011;40566;50.006;36.180;2022-12-26T19:05:48;44.70;;;15.75;;
54665;SDS011;40566;50.006;36.180;2022-12-26T19:10:49;46.75;;;13.32;;
54665;SDS011;40566;50.006;36.180;2022-12-26T19:15:51;56.58;;;14.88;;
54665;SDS011;40566;50.006;36.180;2022-12-26T19:20:51;56.15;;;14.82;;
54665;SDS011;40566;50.006;36.180;2022-12-26T19:25:52;55.38;;;14.98;;
54665;SDS011;40566;50.006;36.180;2022-12-26T19:30:53;44.40;;;12.73;;
54665;SDS011;40566;50.006;36.180;2022-12-26T19:35:54;51.25;;;13.07;;
54665;SDS011;40566;50.006;36.180;2022-12-26T19:41:05;67.00;;;11.85;;
54665;SDS011;40566;50.006;36.180;2022-12-26T19:46:11;42.65;;;11.02;;
54665;SDS011;40566;50.006;36.180;2022-12-26T19:51:16;46.92;;;10.85;;
54665;SDS011;40566;50.006;36.180;2022-12-26T19:56:21;50.95;;;12.02;;
54665;SDS011;40566;50.006;36.180;2022-12-26T20:01:26;60.55;;;13.90;;
54665;SDS011;40566;50.006;36.180;2022-12-26T20:06:29;31.90;;;8.77;;
54665;SDS011;40566;50.006;36.180;2022-12-26T20:11:32;46.30;;;8.40;;
54665;SDS011;40566;50.006;36.180;2022-12-26T20:16:34;61.30;;;12.80;;
54665;SDS011;40566;50.006;36.180;2022-12-26T20:21:35;67.05;;;13.32;;
54665;SDS011;40566;50.006;36.180;2022-12-26T20:26:37;64.50;;;14.63;;
54665;SDS011;40566;50.006;36.180;2022-12-26T20:31:39;65.20;;;11.85;;
54665;SDS011;40566;50.006;36.180;2022-12-26T20:36:39;56.63;;;10.50;;
54665;SDS011;40566;50.006;36.180;2022-12-26T20:41:40;69.13;;;10.27;;
54665;SDS011;40566;50.006;36.180;2022-12-26T20:46:41;51.22;;;8.52;;
54665;SDS011;40566;50.006;36.180;2022-12-26T20:51:43;65.18;;;8.18;;
54665;SDS011;40566;50.006;36.180;2022-12-26T20:56:44;48.05;;;7.82;;
54665;SDS011;40566;50.006;36.180;2022-12-26T21:01:45;53.90;;;7.25;;
54665;SDS011;40566;50.006;36.180;2022-12-26T21:06:47;46.97;;;8.00;;
54665;SDS011;40566;50.006;36.180;2022-12-26T21:11:49;39.90;;;8.77;;
54665;SDS011;40566;50.006;36.180;2022-12-26T21:16:51;68.00;;;8.88;;
54665;SDS011;40566;50.006;36.180;2022-12-26T21:21:56;64.90;;;10.05;;
54665;SDS011;40566;50.006;36.180;2022-12-26T21:26:56;48.00;;;8.85;;
54665;SDS011;40566;50.006;36.180;2022-12-26T21:31:57;42.05;;;8.35;;
54665;SDS011;40566;50.006;36.180;2022-12-26T21:36:59;94.80;;;11.35;;
54665;SDS011;40566;50.006;36.180;2022-12-26T21:42:19;47.28;;;9.82;;
54665;SDS011;40566;50.006;36.180;2022-12-26T21:47:19;58.53;;;9.43;;
54665;SDS011;40566;50.006;36.180;2022-12-26T21:52:20;95.88;;;9.98;;
54665;SDS011;40566;50.006;36.180;2022-12-26T21:57:24;54.15;;;8.38;;
54665;SDS011;40566;50.006;36.180;2022-12-26T22:02:26;44.05;;;9.02;;
54665;SDS011;40566;50.006;36.180;2022-12-26T22:07:50;50.50;;;8.63;;
54665;SDS011;40566;50.006;36.180;2022-12-26T22:12:52;42.35;;;9.48;;
54665;SDS011;40566;50.006;36.180;2022-12-26T22:17:56;40.00;;;8.77;;
54665;SDS011;40566;50.006;36.180;2022-12-26T22:22:56;45.67;;;9.38;;
54665;SDS011;40566;50.006;36.180;2022-12-26T22:27:57;49.05;;;8.65;;
54665;SDS011;40566;50.006;36.180;2022-12-26T22:32:58;50.42;;;7.55;;
54665;SDS011;40566;50.006;36.180;2022-12-26T22:38:00;47.03;;;7.40;;
54665;SDS011;40566;50.006;36.180;2022-12-26T22:43:00;73.15;;;12.93;;
54665;SDS011;40566;50.006;36.180;2022-12-26T22:48:01;88.15;;;16.73;;
54665;SDS011;40566;50.006;36.180;2022-12-26T22:53:02;50.35;;;12.27;;
54665;SDS011;40566;50.006;36.180;2022-12-26T22:58:03;41.30;;;11.20;;
54665;SDS011;40566;50.006;36.180;2022-12-26T23:03:03;47.03;;;9.70;;
54665;SDS011;40566;50.006;36.180;2022-12-26T23:08:04;34.50;;;9.90;;
54665;SDS011;40566;50.006;36.180;2022-12-26T23:13:09;30.05;;;9.38;;
54665;SDS011;40566;50.006;36.180;2022-12-26T23:18:29;40.17;;;9.32;;
54665;SDS011;40566;50.006;36.180;2022-12-26T23:23:58;41.83;;;9.57;;
54665;SDS011;40566;50.006;36.180;2022-12-26T23:28:59;69.40;;;10.95;;
54665;SDS011;40566;50.006;36.180;2022-12-26T23:34:18;38.55;;;9.40;;
54665;SDS011;40566;50.006;36.180;2022-12-26T23:39:18;64.30;;;9.75;;
54665;SDS011;40566;50.006;36.180;2022-12-26T23:44:19;46.78;;;8.45;;
54665;SDS011;40566;50.006;36.180;2022-12-26T23:49:20;56.28;;;9.90;;
54665;SDS011;40566;50.006;36.180;2022-12-26T23:54:20;45.97;;;8.43;;
54665;SDS011;40566;50.006;36.180;2022-12-26T23:59:21;53.53;;;9.98;;
